sensor_id;sensor_type;location;lat;lon;timestamp;temperature;humidity
57857;DHT22;43683;48.650;9.290;2022-11-20T00:01:14;4.70;93.60
57857;DHT22;43683;48.650;9.290;2022-11-20T00:03:40;4.60;93.70
57857;DHT22;43683;48.650;9.290;2022-11-20T00:06:07;4.50;93.80
57857;DHT22;43683;48.650;9.290;2022-11-20T00:08:33;4.40;93.90
57857;DHT22;43683;48.650;9.290;2022-11-20T00:11:10;4.20;94.00
57857;DHT22;43683;48.650;9.290;2022-11-20T00:13:36;4.10;94.10
57857;DHT22;43683;48.650;9.290;2022-11-20T00:16:04;4.00;94.10
57857;DHT22;43683;48.650;9.290;2022-11-20T00:18:30;4.00;94.20
57857;DHT22;43683;48.650;9.290;2022-11-20T00:21:04;3.90;94.30
57857;DHT22;43683;48.650;9.290;2022-11-20T00:23:30;3.80;94.30
57857;DHT22;43683;48.650;9.290;2022-11-20T00:25:55;3.80;94.30
57857;DHT22;43683;48.650;9.290;2022-11-20T00:28:21;3.80;94.30
57857;DHT22;43683;48.650;9.290;2022-11-20T00:30:47;3.70;94.30
57857;DHT22;43683;48.650;9.290;2022-11-20T00:33:12;3.70;94.30
57857;DHT22;43683;48.650;9.290;2022-11-20T00:35:37;3.70;94.30
57857;DHT22;43683;48.650;9.290;2022-11-20T00:38:03;3.70;94.20
57857;DHT22;43683;48.650;9.290;2022-11-20T00:40:29;3.70;94.20
57857;DHT22;43683;48.650;9.290;2022-11-20T00:42:54;3.70;94.10
57857;DHT22;43683;48.650;9.290;2022-11-20T00:45:20;3.70;94.10
57857;DHT22;43683;48.650;9.290;2022-11-20T00:47:45;3.70;94.10
57857;DHT22;43683;48.650;9.290;2022-11-20T00:50:11;3.60;94.10
57857;DHT22;43683;48.650;9.290;2022-11-20T00:52:36;3.60;94.10
57857;DHT22;43683;48.650;9.290;2022-11-20T00:55:02;3.60;94.20
57857;DHT22;43683;48.650;9.290;2022-11-20T00:57:28;3.50;94.20
57857;DHT22;43683;48.650;9.290;2022-11-20T00:59:53;3.40;94.20
57857;DHT22;43683;48.650;9.290;2022-11-20T01:02:19;3.40;94.20
57857;DHT22;43683;48.650;9.290;2022-11-20T01:04:44;3.40;94.30
57857;DHT22;43683;48.650;9.290;2022-11-20T01:07:10;3.40;94.20
57857;DHT22;43683;48.650;9.290;2022-11-20T01:09:36;3.40;94.20
57857;DHT22;43683;48.650;9.290;2022-11-20T01:12:01;3.50;94.10
57857;DHT22;43683;48.650;9.290;2022-11-20T01:14:27;3.50;94.00
57857;DHT22;43683;48.650;9.290;2022-11-20T01:16:52;3.60;93.90
57857;DHT22;43683;48.650;9.290;2022-11-20T01:19:23;3.60;93.80
57857;DHT22;43683;48.650;9.290;2022-11-20T01:21:50;3.70;93.80
57857;DHT22;43683;48.650;9.290;2022-11-20T01:24:18;3.70;93.70
57857;DHT22;43683;48.650;9.290;2022-11-20T01:26:44;3.70;93.70
57857;DHT22;43683;48.650;9.290;2022-11-20T01:29:19;3.80;93.70
57857;DHT22;43683;48.650;9.290;2022-11-20T01:31:45;3.80;93.60
57857;DHT22;43683;48.650;9.290;2022-11-20T01:34:13;3.90;93.60
57857;DHT22;43683;48.650;9.290;2022-11-20T01:36:40;3.90;93.60
57857;DHT22;43683;48.650;9.290;2022-11-20T01:39:12;3.90;93.50
57857;DHT22;43683;48.650;9.290;2022-11-20T01:41:39;3.90;93.50
57857;DHT22;43683;48.650;9.290;2022-11-20T01:44:45;3.90;93.50
57857;DHT22;43683;48.650;9.290;2022-11-20T01:47:14;3.80;93.60
57857;DHT22;43683;48.650;9.290;2022-11-20T01:49:45;3.70;93.70
57857;DHT22;43683;48.650;9.290;2022-11-20T01:52:21;3.60;93.80
57857;DHT22;43683;48.650;9.290;2022-11-20T01:54:52;3.50;94.00
57857;DHT22;43683;48.650;9.290;2022-11-20T01:57:20;3.30;94.20
57857;DHT22;43683;48.650;9.290;2022-11-20T01:59:55;3.10;94.30
57857;DHT22;43683;48.650;9.290;2022-11-20T02:02:23;3.00;94.50
57857;DHT22;43683;48.650;9.290;2022-11-20T02:04:51;2.90;94.70
57857;DHT22;43683;48.650;9.290;2022-11-20T02:07:20;2.80;94.80
57857;DHT22;43683;48.650;9.290;2022-11-20T02:09:46;2.70;94.90
57857;DHT22;43683;48.650;9.290;2022-11-20T02:12:11;2.70;94.90
57857;DHT22;43683;48.650;9.290;2022-11-20T02:14:57;2.70;95.00
57857;DHT22;43683;48.650;9.290;2022-11-20T02:17:24;2.70;95.00
57857;DHT22;43683;48.650;9.290;2022-11-20T02:19:49;2.70;94.90
57857;DHT22;43683;48.650;9.290;2022-11-20T02:22:22;2.60;94.90
57857;DHT22;43683;48.650;9.290;2022-11-20T02:24:49;2.60;94.90
57857;DHT22;43683;48.650;9.290;2022-11-20T02:27:16;2.70;94.90
57857;DHT22;43683;48.650;9.290;2022-11-20T02:29:46;2.70;94.80
57857;DHT22;43683;48.650;9.290;2022-11-20T02:32:35;2.70;94.70
57857;DHT22;43683;48.650;9.290;2022-11-20T02:37:59;2.70;94.80
57857;DHT22;43683;48.650;9.290;2022-11-20T02:40:25;2.70;94.80
57857;DHT22;43683;48.650;9.290;2022-11-20T02:42:55;2.70;94.70
57857;DHT22;43683;48.650;9.290;2022-11-20T02:45:21;2.70;94.70
57857;DHT22;43683;48.650;9.290;2022-11-20T02:47:48;2.70;94.70
57857;DHT22;43683;48.650;9.290;2022-11-20T02:50:13;2.80;94.70
57857;DHT22;43683;48.650;9.290;2022-11-20T02:52:39;2.80;94.60
57857;DHT22;43683;48.650;9.290;2022-11-20T02:55:05;2.80;94.60
57857;DHT22;43683;48.650;9.290;2022-11-20T02:57:30;2.90;94.60
57857;DHT22;43683;48.650;9.290;2022-11-20T02:59:56;2.90;94.50
57857;DHT22;43683;48.650;9.290;2022-11-20T03:02:21;2.90;94.50
57857;DHT22;43683;48.650;9.290;2022-11-20T03:04:47;2.90;94.60
57857;DHT22;43683;48.650;9.290;2022-11-20T03:07:13;2.90;94.60
57857;DHT22;43683;48.650;9.290;2022-11-20T03:09:38;2.80;94.70
57857;DHT22;43683;48.650;9.290;2022-11-20T03:12:04;2.80;94.80
57857;DHT22;43683;48.650;9.290;2022-11-20T03:14:29;2.80;94.80
57857;DHT22;43683;48.650;9.290;2022-11-20T03:16:55;2.80;94.90
57857;DHT22;43683;48.650;9.290;2022-11-20T03:19:21;2.70;95.00
57857;DHT22;43683;48.650;9.290;2022-11-20T03:21:46;2.80;95.10
57857;DHT22;43683;48.650;9.290;2022-11-20T03:24:13;2.80;95.00
57857;DHT22;43683;48.650;9.290;2022-11-20T03:26:40;2.70;95.00
57857;DHT22;43683;48.650;9.290;2022-11-20T03:29:05;2.70;95.00
57857;DHT22;43683;48.650;9.290;2022-11-20T03:31:37;2.60;95.10
57857;DHT22;43683;48.650;9.290;2022-11-20T03:34:03;2.60;95.30
57857;DHT22;43683;48.650;9.290;2022-11-20T03:36:29;2.70;95.30
57857;DHT22;43683;48.650;9.290;2022-11-20T03:38:56;2.80;95.10
57857;DHT22;43683;48.650;9.290;2022-11-20T03:41:23;3.00;94.90
57857;DHT22;43683;48.650;9.290;2022-11-20T03:43:51;3.10;94.70
57857;DHT22;43683;48.650;9.290;2022-11-20T03:46:17;3.20;94.70
57857;DHT22;43683;48.650;9.290;2022-11-20T03:48:43;3.30;94.50
57857;DHT22;43683;48.650;9.290;2022-11-20T03:51:16;3.30;94.40
57857;DHT22;43683;48.650;9.290;2022-11-20T03:53:43;3.40;94.40
57857;DHT22;43683;48.650;9.290;2022-11-20T03:56:10;3.40;94.30
57857;DHT22;43683;48.650;9.290;2022-11-20T03:58:37;3.50;94.30
57857;DHT22;43683;48.650;9.290;2022-11-20T04:01:17;3.60;94.40
57857;DHT22;43683;48.650;9.290;2022-11-20T04:03:44;3.50;94.40
57857;DHT22;43683;48.650;9.290;2022-11-20T04:06:18;3.50;94.50
57857;DHT22;43683;48.650;9.290;2022-11-20T04:08:44;3.60;94.50
57857;DHT22;43683;48.650;9.290;2022-11-20T04:11:16;3.50;94.50
57857;DHT22;43683;48.650;9.290;2022-11-20T04:13:45;3.50;94.60
57857;DHT22;43683;48.650;9.290;2022-11-20T04:16:10;3.40;94.80
57857;DHT22;43683;48.650;9.290;2022-11-20T04:18:36;3.30;94.90
57857;DHT22;43683;48.650;9.290;2022-11-20T04:21:03;3.20;95.00
57857;DHT22;43683;48.650;9.290;2022-11-20T04:23:29;3.30;95.00
57857;DHT22;43683;48.650;9.290;2022-11-20T04:25:54;3.40;95.00
57857;DHT22;43683;48.650;9.290;2022-11-20T04:28:25;3.50;94.90
57857;DHT22;43683;48.650;9.290;2022-11-20T04:30:51;3.70;94.70
57857;DHT22;43683;48.650;9.290;2022-11-20T04:33:16;3.80;94.50
57857;DHT22;43683;48.650;9.290;2022-11-20T04:35:42;3.70;94.50
57857;DHT22;43683;48.650;9.290;2022-11-20T04:38:08;3.70;94.60
57857;DHT22;43683;48.650;9.290;2022-11-20T04:40:33;3.60;94.70
57857;DHT22;43683;48.650;9.290;2022-11-20T04:42:59;3.60;94.80
57857;DHT22;43683;48.650;9.290;2022-11-20T04:45:25;3.50;94.80
57857;DHT22;43683;48.650;9.290;2022-11-20T04:47:50;3.60;94.90
57857;DHT22;43683;48.650;9.290;2022-11-20T04:50:16;3.60;94.80
57857;DHT22;43683;48.650;9.290;2022-11-20T04:52:41;3.80;94.70
57857;DHT22;43683;48.650;9.290;2022-11-20T04:55:08;3.90;94.60
57857;DHT22;43683;48.650;9.290;2022-11-20T04:57:33;4.00;94.40
57857;DHT22;43683;48.650;9.290;2022-11-20T04:59:59;4.20;94.30
57857;DHT22;43683;48.650;9.290;2022-11-20T05:02:24;4.30;94.20
57857;DHT22;43683;48.650;9.290;2022-11-20T05:04:50;4.30;94.10
57857;DHT22;43683;48.650;9.290;2022-11-20T05:07:15;4.50;94.00
57857;DHT22;43683;48.650;9.290;2022-11-20T05:09:41;4.60;93.90
57857;DHT22;43683;48.650;9.290;2022-11-20T05:12:09;4.70;93.80
57857;DHT22;43683;48.650;9.290;2022-11-20T05:14:35;4.80;93.70
57857;DHT22;43683;48.650;9.290;2022-11-20T05:17:00;4.80;93.60
57857;DHT22;43683;48.650;9.290;2022-11-20T05:19:26;4.90;93.60
57857;DHT22;43683;48.650;9.290;2022-11-20T05:21:51;5.00;93.50
57857;DHT22;43683;48.650;9.290;2022-11-20T05:24:17;5.00;93.50
57857;DHT22;43683;48.650;9.290;2022-11-20T05:26:42;5.00;93.50
57857;DHT22;43683;48.650;9.290;2022-11-20T05:29:12;5.10;93.40
57857;DHT22;43683;48.650;9.290;2022-11-20T05:31:40;5.10;93.40
57857;DHT22;43683;48.650;9.290;2022-11-20T05:34:06;5.10;93.40
57857;DHT22;43683;48.650;9.290;2022-11-20T05:36:32;5.20;93.40
57857;DHT22;43683;48.650;9.290;2022-11-20T05:38:57;5.20;93.40
57857;DHT22;43683;48.650;9.290;2022-11-20T05:41:23;5.20;93.30
57857;DHT22;43683;48.650;9.290;2022-11-20T05:43:49;5.20;93.30
57857;DHT22;43683;48.650;9.290;2022-11-20T05:46:17;5.20;93.30
57857;DHT22;43683;48.650;9.290;2022-11-20T05:48:44;5.30;93.30
57857;DHT22;43683;48.650;9.290;2022-11-20T05:51:13;5.30;93.30
57857;DHT22;43683;48.650;9.290;2022-11-20T05:53:39;5.30;93.20
57857;DHT22;43683;48.650;9.290;2022-11-20T05:56:18;5.30;93.20
57857;DHT22;43683;48.650;9.290;2022-11-20T05:58:44;5.30;93.20
57857;DHT22;43683;48.650;9.290;2022-11-20T06:01:11;5.20;93.30
57857;DHT22;43683;48.650;9.290;2022-11-20T06:03:38;5.20;93.30
57857;DHT22;43683;48.650;9.290;2022-11-20T06:06:05;5.10;93.40
57857;DHT22;43683;48.650;9.290;2022-11-20T06:08:31;5.10;93.40
57857;DHT22;43683;48.650;9.290;2022-11-20T06:10:57;5.10;93.40
57857;DHT22;43683;48.650;9.290;2022-11-20T06:13:23;5.20;93.40
57857;DHT22;43683;48.650;9.290;2022-11-20T06:15:52;5.20;93.30
57857;DHT22;43683;48.650;9.290;2022-11-20T06:18:19;5.20;93.20
57857;DHT22;43683;48.650;9.290;2022-11-20T06:20:45;5.20;93.30
57857;DHT22;43683;48.650;9.290;2022-11-20T06:23:11;5.20;93.30
57857;DHT22;43683;48.650;9.290;2022-11-20T06:25:38;5.20;93.30
57857;DHT22;43683;48.650;9.290;2022-11-20T06:28:04;5.20;93.20
57857;DHT22;43683;48.650;9.290;2022-11-20T06:30:29;5.30;93.20
57857;DHT22;43683;48.650;9.290;2022-11-20T06:32:55;5.20;93.20
57857;DHT22;43683;48.650;9.290;2022-11-20T06:35:20;5.20;93.20
57857;DHT22;43683;48.650;9.290;2022-11-20T06:37:46;5.10;93.30
57857;DHT22;43683;48.650;9.290;2022-11-20T06:40:12;5.10;93.30
57857;DHT22;43683;48.650;9.290;2022-11-20T06:42:37;5.10;93.30
57857;DHT22;43683;48.650;9.290;2022-11-20T06:45:03;5.20;93.30
57857;DHT22;43683;48.650;9.290;2022-11-20T06:47:28;5.20;93.20
57857;DHT22;43683;48.650;9.290;2022-11-20T06:49:54;5.20;93.20
57857;DHT22;43683;48.650;9.290;2022-11-20T06:52:20;5.20;93.10
57857;DHT22;43683;48.650;9.290;2022-11-20T06:54:45;5.20;93.10
57857;DHT22;43683;48.650;9.290;2022-11-20T06:57:11;5.20;93.10
57857;DHT22;43683;48.650;9.290;2022-11-20T06:59:36;5.20;93.10
57857;DHT22;43683;48.650;9.290;2022-11-20T07:02:02;5.20;93.10
57857;DHT22;43683;48.650;9.290;2022-11-20T07:04:27;5.20;93.10
57857;DHT22;43683;48.650;9.290;2022-11-20T07:06:53;5.20;93.10
57857;DHT22;43683;48.650;9.290;2022-11-20T07:09:18;5.20;93.10
57857;DHT22;43683;48.650;9.290;2022-11-20T07:11:44;5.20;93.10
57857;DHT22;43683;48.650;9.290;2022-11-20T07:14:09;5.20;93.10
57857;DHT22;43683;48.650;9.290;2022-11-20T07:16:35;5.20;93.10
57857;DHT22;43683;48.650;9.290;2022-11-20T07:19:01;5.10;93.10
57857;DHT22;43683;48.650;9.290;2022-11-20T07:21:26;5.10;93.10
57857;DHT22;43683;48.650;9.290;2022-11-20T07:23:52;5.10;93.20
57857;DHT22;43683;48.650;9.290;2022-11-20T07:26:17;5.00;93.20
57857;DHT22;43683;48.650;9.290;2022-11-20T07:28:46;5.00;93.30
57857;DHT22;43683;48.650;9.290;2022-11-20T07:31:12;5.00;93.30
57857;DHT22;43683;48.650;9.290;2022-11-20T07:33:38;5.00;93.30
57857;DHT22;43683;48.650;9.290;2022-11-20T07:36:04;5.00;93.30
57857;DHT22;43683;48.650;9.290;2022-11-20T07:38:30;5.00;93.30
57857;DHT22;43683;48.650;9.290;2022-11-20T07:40:56;5.00;93.30
57857;DHT22;43683;48.650;9.290;2022-11-20T07:43:27;5.10;93.20
57857;DHT22;43683;48.650;9.290;2022-11-20T07:45:55;5.10;93.20
57857;DHT22;43683;48.650;9.290;2022-11-20T07:48:21;5.10;93.10
57857;DHT22;43683;48.650;9.290;2022-11-20T07:50:47;5.10;93.00
57857;DHT22;43683;48.650;9.290;2022-11-20T07:53:12;5.10;93.00
57857;DHT22;43683;48.650;9.290;2022-11-20T07:55:39;5.10;93.00
57857;DHT22;43683;48.650;9.290;2022-11-20T07:58:04;5.10;93.10
57857;DHT22;43683;48.650;9.290;2022-11-20T08:00:30;5.20;93.00
57857;DHT22;43683;48.650;9.290;2022-11-20T08:02:55;5.40;92.90
57857;DHT22;43683;48.650;9.290;2022-11-20T08:05:21;5.50;92.70
57857;DHT22;43683;48.650;9.290;2022-11-20T08:07:47;5.60;92.50
57857;DHT22;43683;48.650;9.290;2022-11-20T08:10:14;5.70;92.40
57857;DHT22;43683;48.650;9.290;2022-11-20T08:15:10;5.90;92.30
57857;DHT22;43683;48.650;9.290;2022-11-20T08:17:35;6.00;92.20
57857;DHT22;43683;48.650;9.290;2022-11-20T08:20:01;6.10;92.10
57857;DHT22;43683;48.650;9.290;2022-11-20T08:22:27;6.20;92.00
57857;DHT22;43683;48.650;9.290;2022-11-20T08:24:52;6.30;91.90
57857;DHT22;43683;48.650;9.290;2022-11-20T08:27:18;6.30;91.80
57857;DHT22;43683;48.650;9.290;2022-11-20T08:29:43;6.40;91.80
57857;DHT22;43683;48.650;9.290;2022-11-20T08:32:09;6.40;91.80
57857;DHT22;43683;48.650;9.290;2022-11-20T08:34:34;6.50;91.70
57857;DHT22;43683;48.650;9.290;2022-11-20T08:37:02;6.50;91.70
57857;DHT22;43683;48.650;9.290;2022-11-20T08:39:27;6.50;91.60
57857;DHT22;43683;48.650;9.290;2022-11-20T08:41:53;6.60;91.60
57857;DHT22;43683;48.650;9.290;2022-11-20T08:44:18;6.70;91.50
57857;DHT22;43683;48.650;9.290;2022-11-20T08:46:44;6.70;91.50
57857;DHT22;43683;48.650;9.290;2022-11-20T08:49:12;6.70;91.50
57857;DHT22;43683;48.650;9.290;2022-11-20T08:51:38;6.60;91.60
57857;DHT22;43683;48.650;9.290;2022-11-20T08:54:05;6.60;91.60
57857;DHT22;43683;48.650;9.290;2022-11-20T08:56:31;6.70;91.60
57857;DHT22;43683;48.650;9.290;2022-11-20T08:58:56;6.70;91.50
57857;DHT22;43683;48.650;9.290;2022-11-20T09:01:23;6.80;91.50
57857;DHT22;43683;48.650;9.290;2022-11-20T09:03:49;6.80;91.40
57857;DHT22;43683;48.650;9.290;2022-11-20T09:06:15;6.90;91.40
57857;DHT22;43683;48.650;9.290;2022-11-20T09:08:41;7.00;91.40
57857;DHT22;43683;48.650;9.290;2022-11-20T09:11:07;7.00;91.30
57857;DHT22;43683;48.650;9.290;2022-11-20T09:13:34;7.10;91.30
57857;DHT22;43683;48.650;9.290;2022-11-20T09:16:03;7.10;91.20
57857;DHT22;43683;48.650;9.290;2022-11-20T09:18:30;7.20;91.20
57857;DHT22;43683;48.650;9.290;2022-11-20T09:21:00;7.20;91.20
57857;DHT22;43683;48.650;9.290;2022-11-20T09:23:30;7.20;91.10
57857;DHT22;43683;48.650;9.290;2022-11-20T09:25:56;7.30;91.10
57857;DHT22;43683;48.650;9.290;2022-11-20T09:28:25;7.30;91.00
57857;DHT22;43683;48.650;9.290;2022-11-20T09:30:51;7.40;91.10
57857;DHT22;43683;48.650;9.290;2022-11-20T09:33:17;7.40;91.10
57857;DHT22;43683;48.650;9.290;2022-11-20T09:35:43;7.40;91.10
57857;DHT22;43683;48.650;9.290;2022-11-20T09:38:09;7.40;91.10
57857;DHT22;43683;48.650;9.290;2022-11-20T09:40:38;7.40;91.10
57857;DHT22;43683;48.650;9.290;2022-11-20T09:48:48;7.50;91.00
57857;DHT22;43683;48.650;9.290;2022-11-20T09:51:34;7.50;91.00
57857;DHT22;43683;48.650;9.290;2022-11-20T09:54:13;7.50;91.10
57857;DHT22;43683;48.650;9.290;2022-11-20T09:56:42;7.50;91.10
57857;DHT22;43683;48.650;9.290;2022-11-20T09:59:19;7.50;91.20
57857;DHT22;43683;48.650;9.290;2022-11-20T10:01:48;7.40;91.20
57857;DHT22;43683;48.650;9.290;2022-11-20T10:04:19;7.50;91.20
57857;DHT22;43683;48.650;9.290;2022-11-20T10:06:56;7.60;91.10
57857;DHT22;43683;48.650;9.290;2022-11-20T10:09:36;7.70;91.00
57857;DHT22;43683;48.650;9.290;2022-11-20T10:12:26;7.70;90.90
57857;DHT22;43683;48.650;9.290;2022-11-20T10:23:46;7.60;91.00
57857;DHT22;43683;48.650;9.290;2022-11-20T10:26:44;7.70;90.90
57857;DHT22;43683;48.650;9.290;2022-11-20T10:29:16;7.70;90.80
57857;DHT22;43683;48.650;9.290;2022-11-20T10:31:46;7.80;90.90
57857;DHT22;43683;48.650;9.290;2022-11-20T10:34:18;7.70;90.90
57857;DHT22;43683;48.650;9.290;2022-11-20T10:36:54;7.70;91.00
57857;DHT22;43683;48.650;9.290;2022-11-20T10:39:23;7.60;91.00
57857;DHT22;43683;48.650;9.290;2022-11-20T10:41:52;7.50;91.10
57857;DHT22;43683;48.650;9.290;2022-11-20T10:44:25;7.50;91.10
57857;DHT22;43683;48.650;9.290;2022-11-20T10:47:15;7.50;91.00
57857;DHT22;43683;48.650;9.290;2022-11-20T10:49:43;7.50;91.00
57857;DHT22;43683;48.650;9.290;2022-11-20T10:52:20;7.40;91.10
57857;DHT22;43683;48.650;9.290;2022-11-20T10:54:59;7.40;91.20
57857;DHT22;43683;48.650;9.290;2022-11-20T11:00:20;7.40;91.30
57857;DHT22;43683;48.650;9.290;2022-11-20T11:02:48;7.40;91.30
57857;DHT22;43683;48.650;9.290;2022-11-20T11:05:25;7.40;91.20
57857;DHT22;43683;48.650;9.290;2022-11-20T11:07:55;7.40;91.20
57857;DHT22;43683;48.650;9.290;2022-11-20T11:10:44;7.50;91.20
57857;DHT22;43683;48.650;9.290;2022-11-20T11:13:21;7.40;91.10
57857;DHT22;43683;48.650;9.290;2022-11-20T11:15:47;7.50;91.10
57857;DHT22;43683;48.650;9.290;2022-11-20T11:18:26;7.60;91.00
57857;DHT22;43683;48.650;9.290;2022-11-20T11:20:53;7.70;90.90
57857;DHT22;43683;48.650;9.290;2022-11-20T11:23:35;7.80;90.90
57857;DHT22;43683;48.650;9.290;2022-11-20T11:26:04;7.90;90.70
57857;DHT22;43683;48.650;9.290;2022-11-20T11:28:30;8.00;90.70
57857;DHT22;43683;48.650;9.290;2022-11-20T11:30:57;8.20;90.50
57857;DHT22;43683;48.650;9.290;2022-11-20T11:33:24;8.40;90.40
57857;DHT22;43683;48.650;9.290;2022-11-20T11:35:54;8.50;90.30
57857;DHT22;43683;48.650;9.290;2022-11-20T11:38:35;8.60;90.20
57857;DHT22;43683;48.650;9.290;2022-11-20T11:41:03;8.60;90.10
57857;DHT22;43683;48.650;9.290;2022-11-20T11:43:32;8.60;90.10
57857;DHT22;43683;48.650;9.290;2022-11-20T11:49:00;8.60;90.20
57857;DHT22;43683;48.650;9.290;2022-11-20T11:51:34;8.60;90.10
57857;DHT22;43683;48.650;9.290;2022-11-20T11:54:10;8.50;90.40
57857;DHT22;43683;48.650;9.290;2022-11-20T11:56:39;8.40;90.70
57857;DHT22;43683;48.650;9.290;2022-11-20T11:59:10;8.30;91.00
57857;DHT22;43683;48.650;9.290;2022-11-20T12:01:45;8.30;91.50
57857;DHT22;43683;48.650;9.290;2022-11-20T12:06:47;8.70;91.40
57857;DHT22;43683;48.650;9.290;2022-11-20T12:09:13;8.90;91.30
57857;DHT22;43683;48.650;9.290;2022-11-20T12:12:08;9.20;91.10
57857;DHT22;43683;48.650;9.290;2022-11-20T12:14:41;9.30;90.60
57857;DHT22;43683;48.650;9.290;2022-11-20T12:17:12;9.40;90.30
57857;DHT22;43683;48.650;9.290;2022-11-20T12:19:38;9.30;90.00
57857;DHT22;43683;48.650;9.290;2022-11-20T12:22:35;9.10;90.00
57857;DHT22;43683;48.650;9.290;2022-11-20T12:25:16;8.80;90.30
57857;DHT22;43683;48.650;9.290;2022-11-20T12:28:16;8.60;90.60
57857;DHT22;43683;48.650;9.290;2022-11-20T12:33:38;8.30;90.80
57857;DHT22;43683;48.650;9.290;2022-11-20T12:36:19;8.10;91.00
57857;DHT22;43683;48.650;9.290;2022-11-20T12:44:52;8.30;90.50
57857;DHT22;43683;48.650;9.290;2022-11-20T12:55:36;9.50;87.30
57857;DHT22;43683;48.650;9.290;2022-11-20T13:01:37;9.60;86.90
57857;DHT22;43683;48.650;9.290;2022-11-20T13:07:17;9.10;86.40
57857;DHT22;43683;48.650;9.290;2022-11-20T13:09:46;8.60;87.70
57857;DHT22;43683;48.650;9.290;2022-11-20T13:18:04;8.00;89.50
57857;DHT22;43683;48.650;9.290;2022-11-20T13:20:30;7.90;89.80
57857;DHT22;43683;48.650;9.290;2022-11-20T13:22:57;7.90;89.90
57857;DHT22;43683;48.650;9.290;2022-11-20T13:25:29;7.90;89.70
57857;DHT22;43683;48.650;9.290;2022-11-20T13:27:57;8.40;89.20
57857;DHT22;43683;48.650;9.290;2022-11-20T13:30:25;9.10;87.80
57857;DHT22;43683;48.650;9.290;2022-11-20T13:33:21;9.10;86.60
57857;DHT22;43683;48.650;9.290;2022-11-20T13:36:19;8.80;86.70
57857;DHT22;43683;48.650;9.290;2022-11-20T13:38:50;8.60;87.90
57857;DHT22;43683;48.650;9.290;2022-11-20T13:46:53;9.00;87.00
57857;DHT22;43683;48.650;9.290;2022-11-20T13:51:49;8.70;88.20
57857;DHT22;43683;48.650;9.290;2022-11-20T13:54:47;8.40;88.20
57857;DHT22;43683;48.650;9.290;2022-11-20T13:57:48;8.30;87.90
57857;DHT22;43683;48.650;9.290;2022-11-20T14:00:20;8.00;88.20
57857;DHT22;43683;48.650;9.290;2022-11-20T14:03:20;7.80;89.00
57857;DHT22;43683;48.650;9.290;2022-11-20T14:05:47;7.90;89.90
57857;DHT22;43683;48.650;9.290;2022-11-20T14:08:25;8.70;89.90
57857;DHT22;43683;48.650;9.290;2022-11-20T14:11:05;9.40;88.60
57857;DHT22;43683;48.650;9.290;2022-11-20T14:13:31;9.90;87.30
57857;DHT22;43683;48.650;9.290;2022-11-20T14:15:58;10.10;87.70
57857;DHT22;43683;48.650;9.290;2022-11-20T14:18:26;10.00;87.70
57857;DHT22;43683;48.650;9.290;2022-11-20T14:20:51;9.70;87.60
57857;DHT22;43683;48.650;9.290;2022-11-20T14:23:28;9.30;88.10
57857;DHT22;43683;48.650;9.290;2022-11-20T14:25:54;8.80;87.90
57857;DHT22;43683;48.650;9.290;2022-11-20T14:28:37;8.30;88.70
57857;DHT22;43683;48.650;9.290;2022-11-20T14:31:15;7.80;88.70
57857;DHT22;43683;48.650;9.290;2022-11-20T14:33:42;7.60;89.80
57857;DHT22;43683;48.650;9.290;2022-11-20T14:36:22;7.40;89.10
57857;DHT22;43683;48.650;9.290;2022-11-20T14:38:50;7.30;88.70
57857;DHT22;43683;48.650;9.290;2022-11-20T14:41:21;7.20;88.30
57857;DHT22;43683;48.650;9.290;2022-11-20T14:43:53;7.30;87.80
57857;DHT22;43683;48.650;9.290;2022-11-20T14:46:19;7.30;87.30
57857;DHT22;43683;48.650;9.290;2022-11-20T14:48:51;7.20;87.10
57857;DHT22;43683;48.650;9.290;2022-11-20T14:51:38;7.20;86.90
57857;DHT22;43683;48.650;9.290;2022-11-20T14:54:11;7.10;87.00
57857;DHT22;43683;48.650;9.290;2022-11-20T14:56:37;7.00;87.10
57857;DHT22;43683;48.650;9.290;2022-11-20T14:59:03;6.90;87.10
57857;DHT22;43683;48.650;9.290;2022-11-20T15:01:30;6.90;87.20
57857;DHT22;43683;48.650;9.290;2022-11-20T15:04:07;6.70;87.40
57857;DHT22;43683;48.650;9.290;2022-11-20T15:06:33;6.60;87.70
57857;DHT22;43683;48.650;9.290;2022-11-20T15:08:59;6.50;88.10
57857;DHT22;43683;48.650;9.290;2022-11-20T15:11:29;6.50;87.90
57857;DHT22;43683;48.650;9.290;2022-11-20T15:13:56;6.60;87.60
57857;DHT22;43683;48.650;9.290;2022-11-20T15:16:23;6.70;87.40
57857;DHT22;43683;48.650;9.290;2022-11-20T15:18:49;6.70;87.00
57857;DHT22;43683;48.650;9.290;2022-11-20T15:21:18;6.70;86.70
57857;DHT22;43683;48.650;9.290;2022-11-20T15:23:44;6.70;86.70
57857;DHT22;43683;48.650;9.290;2022-11-20T15:26:12;6.70;86.80
57857;DHT22;43683;48.650;9.290;2022-11-20T15:28:41;6.50;87.00
57857;DHT22;43683;48.650;9.290;2022-11-20T15:31:16;6.30;87.40
57857;DHT22;43683;48.650;9.290;2022-11-20T15:33:42;6.10;88.10
57857;DHT22;43683;48.650;9.290;2022-11-20T15:36:08;5.90;88.80
57857;DHT22;43683;48.650;9.290;2022-11-20T15:38:34;5.80;89.30
57857;DHT22;43683;48.650;9.290;2022-11-20T15:41:00;5.60;89.70
57857;DHT22;43683;48.650;9.290;2022-11-20T15:43:26;5.40;90.10
57857;DHT22;43683;48.650;9.290;2022-11-20T15:45:59;5.20;90.30
57857;DHT22;43683;48.650;9.290;2022-11-20T15:48:28;5.00;90.50
57857;DHT22;43683;48.650;9.290;2022-11-20T15:51:04;4.80;90.70
57857;DHT22;43683;48.650;9.290;2022-11-20T15:53:31;4.60;90.90
57857;DHT22;43683;48.650;9.290;2022-11-20T15:55:57;4.40;91.00
57857;DHT22;43683;48.650;9.290;2022-11-20T15:58:22;4.30;91.20
57857;DHT22;43683;48.650;9.290;2022-11-20T16:00:49;4.10;91.30
57857;DHT22;43683;48.650;9.290;2022-11-20T16:03:16;4.00;91.50
57857;DHT22;43683;48.650;9.290;2022-11-20T16:05:42;3.80;91.60
57857;DHT22;43683;48.650;9.290;2022-11-20T16:08:08;3.70;91.70
57857;DHT22;43683;48.650;9.290;2022-11-20T16:10:34;3.70;91.70
57857;DHT22;43683;48.650;9.290;2022-11-20T16:13:00;3.80;91.60
57857;DHT22;43683;48.650;9.290;2022-11-20T16:15:56;4.00;91.30
57857;DHT22;43683;48.650;9.290;2022-11-20T16:18:22;4.10;91.00
57857;DHT22;43683;48.650;9.290;2022-11-20T16:20:53;4.30;90.80
57857;DHT22;43683;48.650;9.290;2022-11-20T16:23:19;4.40;90.60
57857;DHT22;43683;48.650;9.290;2022-11-20T16:25:46;4.60;90.40
57857;DHT22;43683;48.650;9.290;2022-11-20T16:28:11;4.50;90.30
57857;DHT22;43683;48.650;9.290;2022-11-20T16:30:38;4.60;90.40
57857;DHT22;43683;48.650;9.290;2022-11-20T16:33:04;4.60;90.40
57857;DHT22;43683;48.650;9.290;2022-11-20T16:35:30;4.70;90.40
57857;DHT22;43683;48.650;9.290;2022-11-20T16:37:57;4.70;90.40
57857;DHT22;43683;48.650;9.290;2022-11-20T16:40:23;4.80;90.30
57857;DHT22;43683;48.650;9.290;2022-11-20T16:42:49;4.80;90.40
57857;DHT22;43683;48.650;9.290;2022-11-20T16:45:15;4.80;90.40
57857;DHT22;43683;48.650;9.290;2022-11-20T16:47:41;4.90;90.40
57857;DHT22;43683;48.650;9.290;2022-11-20T16:50:07;4.90;90.50
57857;DHT22;43683;48.650;9.290;2022-11-20T16:52:32;4.90;90.50
57857;DHT22;43683;48.650;9.290;2022-11-20T16:54:58;4.90;90.60
57857;DHT22;43683;48.650;9.290;2022-11-20T16:57:26;4.90;90.60
57857;DHT22;43683;48.650;9.290;2022-11-20T16:59:52;4.80;90.70
57857;DHT22;43683;48.650;9.290;2022-11-20T17:02:17;4.80;90.70